Aérodrome :
LOGIN :

S'inscrire | Disclaimer

   EN    FR    IT 

 










Légende :    VFR   VFR Marginal   IFR   IFR Intensif   IFR Très Intensif
Visi : 
Plafond : 
>= 8 km
>= 3000ft
5 à 8 km
1000 à 3000 ft
1500m à 5 km
500 à 1000 ft
800 à 1500m
200 à 500 ft
< 800m
< 200 ft
Symboles :   Orages  Brouillard  Fortes neiges  Fortes précipitations  Vent > 20 kt
SIGMETs :   Divers  Orages  Givrage  Turbulence  Onde Orograph.  Cendres Volcan.






- Altitude de l'aérodrome : 1822 ft


ETSL - Lechfeld AB

DERNIER METAR :
  • 161920Z 32005KT 9999 FEW010 BKN030 14/13 Q1018 BLU

METARs EXPIRÉS :
  • 161850Z 32006KT 9999 FEW010 BKN025 15/13 Q1017 BLU
  • 161820Z 31006KT 8000 BKN020 15/13 Q1017 WHT
  • 161800Z 31007KT 7000 SCT010 BKN020 15/13 Q1017 WHT
  • 161720Z 32006KT 7000 BKN010 BKN025 15/14 Q1017 GRN

TAF TAF ETSL
Valide du 16 à 20h jusqu'au 17 à 05h UTC


161900Z 1620/1705 30005KT 9999 NSW SCT020 BKN080
TEMPO 1620/1705 31005KT 4000 BR BKN010
PROB30 1700/1705 32003KT 2000 MIFG SCT005 BY ETGL



MET'MAP, la Météo Aéronautique d'un coup d'oeil ! - Copyright ORBIFLY Décembre 2007 - Disclaimer

ORBIFLY MET'MAP TEAM :

Programmation & Développement : Alexandra Zaïnal
Sur une idée originale de : Baudouin d'Aumeries
Assistance à la programmation : Marc-Olivier Méhu
Soutien technique & logistique : Manuel Goepfert

Contact : metmap@orbifly.com




SOURCES & CREDITS :

   NOAA